Kezdőlap
METAR-TAF:

METAR-TAF

Repülőterek :

Melaka, Malajzia

földrajzi szélesség: 02-16N, földrajzi hosszúság: 102-15E, magasság: 11 m

Jelenlegi meteorológiai megfigyelések

A jelentés 47 perccel ezelõtt készült, 02:00 UTC
Szélcsend
Hőmérséklet 25°C
Páratartalom 89%
Légköri nyomás 1011 hPa
Látótávolság: 8000 m
Kevés felhő 1000 lábon
Szórványos felhőzet 2700 lábon
enyhe esõ,

METAR: WMKM 220200Z 00000KT 8000 -RA FEW010 SCT027 25/23 Q1011

Idő: 10:47 (02:47 UTC)

Előrejelzés

A jelentés 3 órával és 47 perccel ezelõtt készült, 23:00 UTC
Az előrejelzés 22-én 00 óra UTC és 23-én 00 óra UTC között érvényes
Különbözõ irányokból fújó szél 3 kt
Látótávolság: 9000 m
Kevés felhő 1700 lábon, Cumulonimbus.
22-én 00 óra UTC és 22-én 03 óra UTC között ideiglenes
Látótávolság: 8000 m
Kevés felhő 1000 lábon
enyhe esõ,

TAF: WMKM 212300Z 2200/2300 VRB03KT 9000 FEW017CB TEMPO 2200/2203 8000 -RA FEW010

Meteorológiai megfigyelések és előrejelzések több, mint 4000 repülőtéren (METAR és TAF jelentéseket).

A térképen piros és sárga pontok jelzik az elérhető meteorológiai állomásokat.

Mozgassa az egeret a pont fölött, hogy megjelenjen az állomás neve.

Azután kattintson az időjárási megfigyelések és előrejelzések megtekintéséhez.

A térkép megváltoztatása: kattintson a fekete keresztel jelölt zöld gombra ráközelítéshez, a vonallal jelölt zöld gombra távolításhoz, vagy a zöld nyilakra a szomszédos térképek eléréséhez.


METAR-TAF: